sensor_id;sensor_type;location;lat;lon;timestamp;P1;durP1;ratioP1;P2;durP2;ratioP2
22531;SDS011;11432;46.924;7.114;2023-06-01T00:01:57;5.38;;;3.53;;
22531;SDS011;11432;46.924;7.114;2023-06-01T00:04:23;7.95;;;3.90;;
22531;SDS011;11432;46.924;7.114;2023-06-01T00:06:48;9.05;;;3.50;;
22531;SDS011;11432;46.924;7.114;2023-06-01T00:09:14;6.43;;;3.45;;
22531;SDS011;11432;46.924;7.114;2023-06-01T00:11:40;7.53;;;4.00;;
22531;SDS011;11432;46.924;7.114;2023-06-01T00:14:06;6.85;;;4.00;;
22531;SDS011;11432;46.924;7.114;2023-06-01T00:16:31;6.25;;;4.15;;
22531;SDS011;11432;46.924;7.114;2023-06-01T00:18:57;5.47;;;3.72;;
22531;SDS011;11432;46.924;7.114;2023-06-01T00:21:25;8.43;;;4.47;;
22531;SDS011;11432;46.924;7.114;2023-06-01T00:23:52;9.40;;;4.22;;
22531;SDS011;11432;46.924;7.114;2023-06-01T00:26:17;5.53;;;3.53;;
22531;SDS011;11432;46.924;7.114;2023-06-01T00:28:43;8.05;;;3.90;;
22531;SDS011;11432;46.924;7.114;2023-06-01T00:31:08;6.60;;;3.72;;
22531;SDS011;11432;46.924;7.114;2023-06-01T00:33:34;7.22;;;3.63;;
22531;SDS011;11432;46.924;7.114;2023-06-01T00:36:00;7.70;;;3.85;;
22531;SDS011;11432;46.924;7.114;2023-06-01T00:38:25;9.40;;;4.28;;
22531;SDS011;11432;46.924;7.114;2023-06-01T00:40:51;11.27;;;4.50;;
22531;SDS011;11432;46.924;7.114;2023-06-01T00:43:17;5.88;;;3.78;;
22531;SDS011;11432;46.924;7.114;2023-06-01T00:45:43;6.18;;;3.85;;
22531;SDS011;11432;46.924;7.114;2023-06-01T00:48:09;8.63;;;3.80;;
22531;SDS011;11432;46.924;7.114;2023-06-01T00:50:36;6.32;;;3.60;;
22531;SDS011;11432;46.924;7.114;2023-06-01T00:53:02;5.68;;;3.75;;
22531;SDS011;11432;46.924;7.114;2023-06-01T00:55:30;5.82;;;4.03;;
22531;SDS011;11432;46.924;7.114;2023-06-01T00:57:56;7.28;;;3.58;;
22531;SDS011;11432;46.924;7.114;2023-06-01T01:00:22;8.10;;;3.83;;
22531;SDS011;11432;46.924;7.114;2023-06-01T01:02:49;5.65;;;3.67;;
22531;SDS011;11432;46.924;7.114;2023-06-01T01:05:16;6.93;;;3.95;;
22531;SDS011;11432;46.924;7.114;2023-06-01T01:10:19;6.70;;;3.50;;
22531;SDS011;11432;46.924;7.114;2023-06-01T01:18:27;7.03;;;3.72;;
22531;SDS011;11432;46.924;7.114;2023-06-01T01:21:04;5.57;;;3.47;;
22531;SDS011;11432;46.924;7.114;2023-06-01T01:29:26;9.40;;;3.85;;
22531;SDS011;11432;46.924;7.114;2023-06-01T01:31:53;7.57;;;3.20;;
22531;SDS011;11432;46.924;7.114;2023-06-01T01:34:20;6.47;;;3.88;;
22531;SDS011;11432;46.924;7.114;2023-06-01T01:36:49;8.02;;;3.70;;
22531;SDS011;11432;46.924;7.114;2023-06-01T01:39:14;6.10;;;3.67;;
22531;SDS011;11432;46.924;7.114;2023-06-01T01:41:40;4.10;;;3.10;;
22531;SDS011;11432;46.924;7.114;2023-06-01T01:44:06;9.52;;;3.90;;
22531;SDS011;11432;46.924;7.114;2023-06-01T01:47:05;6.07;;;3.83;;
22531;SDS011;11432;46.924;7.114;2023-06-01T01:49:45;6.47;;;3.55;;
22531;SDS011;11432;46.924;7.114;2023-06-01T01:52:30;5.35;;;3.45;;
22531;SDS011;11432;46.924;7.114;2023-06-01T01:54:58;6.15;;;3.55;;
22531;SDS011;11432;46.924;7.114;2023-06-01T01:57:25;4.93;;;3.20;;
22531;SDS011;11432;46.924;7.114;2023-06-01T01:59:52;5.70;;;2.88;;
22531;SDS011;11432;46.924;7.114;2023-06-01T02:02:18;8.35;;;3.50;;
22531;SDS011;11432;46.924;7.114;2023-06-01T02:04:44;9.10;;;3.55;;
22531;SDS011;11432;46.924;7.114;2023-06-01T02:07:13;6.67;;;3.57;;
22531;SDS011;11432;46.924;7.114;2023-06-01T02:09:39;4.57;;;2.95;;
22531;SDS011;11432;46.924;7.114;2023-06-01T02:12:06;5.35;;;3.45;;
22531;SDS011;11432;46.924;7.114;2023-06-01T02:14:32;7.35;;;3.50;;
22531;SDS011;11432;46.924;7.114;2023-06-01T02:16:58;5.72;;;3.25;;
22531;SDS011;11432;46.924;7.114;2023-06-01T02:19:25;7.30;;;3.20;;
22531;SDS011;11432;46.924;7.114;2023-06-01T02:21:51;7.38;;;3.35;;
22531;SDS011;11432;46.924;7.114;2023-06-01T02:24:17;5.55;;;3.17;;
22531;SDS011;11432;46.924;7.114;2023-06-01T02:26:43;5.55;;;2.80;;
22531;SDS011;11432;46.924;7.114;2023-06-01T02:29:11;7.13;;;3.33;;
22531;SDS011;11432;46.924;7.114;2023-06-01T02:31:38;5.97;;;3.33;;
22531;SDS011;11432;46.924;7.114;2023-06-01T02:34:03;5.57;;;3.28;;
22531;SDS011;11432;46.924;7.114;2023-06-01T02:36:29;6.47;;;3.13;;
22531;SDS011;11432;46.924;7.114;2023-06-01T02:38:56;6.88;;;3.30;;
22531;SDS011;11432;46.924;7.114;2023-06-01T02:41:22;5.82;;;3.30;;
22531;SDS011;11432;46.924;7.114;2023-06-01T02:43:48;4.10;;;3.15;;
22531;SDS011;11432;46.924;7.114;2023-06-01T02:46:17;5.85;;;3.15;;
22531;SDS011;11432;46.924;7.114;2023-06-01T02:48:44;8.40;;;3.10;;
22531;SDS011;11432;46.924;7.114;2023-06-01T02:51:10;6.22;;;3.20;;
22531;SDS011;11432;46.924;7.114;2023-06-01T02:53:38;5.53;;;3.30;;
22531;SDS011;11432;46.924;7.114;2023-06-01T02:56:05;6.82;;;3.28;;
22531;SDS011;11432;46.924;7.114;2023-06-01T02:58:30;7.35;;;3.08;;
22531;SDS011;11432;46.924;7.114;2023-06-01T03:00:56;3.85;;;3.40;;
22531;SDS011;11432;46.924;7.114;2023-06-01T03:03:25;5.97;;;3.47;;
22531;SDS011;11432;46.924;7.114;2023-06-01T03:05:51;5.88;;;3.28;;
22531;SDS011;11432;46.924;7.114;2023-06-01T03:08:17;7.63;;;3.35;;
22531;SDS011;11432;46.924;7.114;2023-06-01T03:10:43;5.18;;;3.25;;
22531;SDS011;11432;46.924;7.114;2023-06-01T03:13:09;4.93;;;3.47;;
22531;SDS011;11432;46.924;7.114;2023-06-01T03:15:34;6.50;;;3.35;;
22531;SDS011;11432;46.924;7.114;2023-06-01T03:18:02;7.68;;;3.80;;
22531;SDS011;11432;46.924;7.114;2023-06-01T03:20:28;6.05;;;3.20;;
22531;SDS011;11432;46.924;7.114;2023-06-01T03:22:54;6.40;;;3.78;;
22531;SDS011;11432;46.924;7.114;2023-06-01T03:25:20;6.88;;;3.60;;
22531;SDS011;11432;46.924;7.114;2023-06-01T03:27:45;5.53;;;3.20;;
22531;SDS011;11432;46.924;7.114;2023-06-01T03:30:11;4.28;;;3.17;;
22531;SDS011;11432;46.924;7.114;2023-06-01T03:32:37;5.28;;;3.58;;
22531;SDS011;11432;46.924;7.114;2023-06-01T03:35:07;5.38;;;3.13;;
22531;SDS011;11432;46.924;7.114;2023-06-01T03:37:34;5.15;;;3.10;;
22531;SDS011;11432;46.924;7.114;2023-06-01T03:40:00;4.90;;;3.10;;
22531;SDS011;11432;46.924;7.114;2023-06-01T03:42:26;7.55;;;3.17;;
22531;SDS011;11432;46.924;7.114;2023-06-01T03:44:52;6.53;;;3.20;;
22531;SDS011;11432;46.924;7.114;2023-06-01T03:47:17;8.20;;;3.38;;
22531;SDS011;11432;46.924;7.114;2023-06-01T03:49:43;6.53;;;3.20;;
22531;SDS011;11432;46.924;7.114;2023-06-01T03:52:09;5.63;;;3.10;;
22531;SDS011;11432;46.924;7.114;2023-06-01T03:54:34;4.80;;;3.30;;
22531;SDS011;11432;46.924;7.114;2023-06-01T03:57:00;9.70;;;3.47;;
22531;SDS011;11432;46.924;7.114;2023-06-01T03:59:26;4.80;;;3.63;;
22531;SDS011;11432;46.924;7.114;2023-06-01T04:01:53;6.45;;;3.20;;
22531;SDS011;11432;46.924;7.114;2023-06-01T04:04:19;7.47;;;3.30;;
22531;SDS011;11432;46.924;7.114;2023-06-01T04:06:50;5.07;;;3.28;;
22531;SDS011;11432;46.924;7.114;2023-06-01T04:09:16;6.72;;;3.70;;
22531;SDS011;11432;46.924;7.114;2023-06-01T04:11:43;5.47;;;3.70;;
22531;SDS011;11432;46.924;7.114;2023-06-01T04:14:09;6.03;;;3.08;;
22531;SDS011;11432;46.924;7.114;2023-06-01T04:16:35;6.25;;;3.38;;
22531;SDS011;11432;46.924;7.114;2023-06-01T04:19:00;6.85;;;3.42;;
22531;SDS011;11432;46.924;7.114;2023-06-01T04:21:26;5.43;;;3.10;;
22531;SDS011;11432;46.924;7.114;2023-06-01T04:23:52;5.60;;;3.53;;
22531;SDS011;11432;46.924;7.114;2023-06-01T04:26:18;5.53;;;3.47;;
22531;SDS011;11432;46.924;7.114;2023-06-01T04:28:44;6.18;;;3.70;;
22531;SDS011;11432;46.924;7.114;2023-06-01T04:31:11;6.78;;;3.78;;
22531;SDS011;11432;46.924;7.114;2023-06-01T04:33:46;6.53;;;3.65;;
22531;SDS011;11432;46.924;7.114;2023-06-01T04:36:18;4.95;;;3.28;;
22531;SDS011;11432;46.924;7.114;2023-06-01T04:38:46;4.85;;;3.15;;
22531;SDS011;11432;46.924;7.114;2023-06-01T04:41:16;10.05;;;3.97;;
22531;SDS011;11432;46.924;7.114;2023-06-01T04:43:42;10.15;;;3.63;;
22531;SDS011;11432;46.924;7.114;2023-06-01T04:46:08;7.05;;;3.70;;
22531;SDS011;11432;46.924;7.114;2023-06-01T04:48:33;5.65;;;3.70;;
22531;SDS011;11432;46.924;7.114;2023-06-01T04:50:59;7.70;;;3.70;;
22531;SDS011;11432;46.924;7.114;2023-06-01T04:53:25;6.82;;;3.40;;
22531;SDS011;11432;46.924;7.114;2023-06-01T04:55:55;5.72;;;3.58;;
22531;SDS011;11432;46.924;7.114;2023-06-01T04:58:21;7.18;;;3.45;;
22531;SDS011;11432;46.924;7.114;2023-06-01T05:00:47;3.95;;;3.05;;
22531;SDS011;11432;46.924;7.114;2023-06-01T05:03:12;5.57;;;3.13;;
22531;SDS011;11432;46.924;7.114;2023-06-01T05:05:38;8.77;;;3.35;;
22531;SDS011;11432;46.924;7.114;2023-06-01T05:08:04;5.03;;;3.40;;
22531;SDS011;11432;46.924;7.114;2023-06-01T05:10:29;5.25;;;3.40;;
22531;SDS011;11432;46.924;7.114;2023-06-01T05:12:55;5.75;;;3.30;;
22531;SDS011;11432;46.924;7.114;2023-06-01T05:15:20;4.70;;;3.08;;
22531;SDS011;11432;46.924;7.114;2023-06-01T05:17:46;5.97;;;3.85;;
22531;SDS011;11432;46.924;7.114;2023-06-01T05:20:12;10.30;;;3.53;;
22531;SDS011;11432;46.924;7.114;2023-06-01T05:22:38;8.68;;;3.70;;
22531;SDS011;11432;46.924;7.114;2023-06-01T05:25:04;4.75;;;3.40;;
22531;SDS011;11432;46.924;7.114;2023-06-01T05:27:33;7.63;;;3.38;;
22531;SDS011;11432;46.924;7.114;2023-06-01T05:29:59;7.63;;;3.60;;
22531;SDS011;11432;46.924;7.114;2023-06-01T05:32:25;4.75;;;3.22;;
22531;SDS011;11432;46.924;7.114;2023-06-01T05:34:51;7.07;;;3.70;;
22531;SDS011;11432;46.924;7.114;2023-06-01T05:37:16;8.77;;;4.10;;
22531;SDS011;11432;46.924;7.114;2023-06-01T05:39:42;5.45;;;3.60;;
22531;SDS011;11432;46.924;7.114;2023-06-01T05:42:07;8.40;;;3.78;;
22531;SDS011;11432;46.924;7.114;2023-06-01T05:44:33;13.27;;;4.78;;
22531;SDS011;11432;46.924;7.114;2023-06-01T05:46:59;7.50;;;3.50;;
22531;SDS011;11432;46.924;7.114;2023-06-01T05:49:25;5.40;;;3.35;;
22531;SDS011;11432;46.924;7.114;2023-06-01T05:51:50;7.78;;;3.72;;
22531;SDS011;11432;46.924;7.114;2023-06-01T05:54:16;4.82;;;3.83;;
22531;SDS011;11432;46.924;7.114;2023-06-01T05:56:41;8.25;;;4.07;;
22531;SDS011;11432;46.924;7.114;2023-06-01T05:59:07;6.25;;;4.20;;
22531;SDS011;11432;46.924;7.114;2023-06-01T06:01:33;8.65;;;3.80;;
22531;SDS011;11432;46.924;7.114;2023-06-01T06:03:58;8.00;;;4.28;;
22531;SDS011;11432;46.924;7.114;2023-06-01T06:06:27;7.10;;;3.72;;
22531;SDS011;11432;46.924;7.114;2023-06-01T06:08:53;8.20;;;3.63;;
22531;SDS011;11432;46.924;7.114;2023-06-01T06:11:18;6.88;;;3.85;;
22531;SDS011;11432;46.924;7.114;2023-06-01T06:13:47;5.97;;;3.78;;
22531;SDS011;11432;46.924;7.114;2023-06-01T06:16:14;6.87;;;4.27;;
22531;SDS011;11432;46.924;7.114;2023-06-01T06:18:40;10.57;;;4.03;;
22531;SDS011;11432;46.924;7.114;2023-06-01T06:24:27;5.40;;;3.80;;
22531;SDS011;11432;46.924;7.114;2023-06-01T06:26:53;6.43;;;4.47;;
22531;SDS011;11432;46.924;7.114;2023-06-01T06:29:19;6.95;;;4.05;;
22531;SDS011;11432;46.924;7.114;2023-06-01T06:31:44;10.68;;;4.45;;
22531;SDS011;11432;46.924;7.114;2023-06-01T06:34:13;7.28;;;4.65;;
22531;SDS011;11432;46.924;7.114;2023-06-01T06:36:39;9.07;;;4.17;;
22531;SDS011;11432;46.924;7.114;2023-06-01T06:39:04;7.93;;;4.45;;
22531;SDS011;11432;46.924;7.114;2023-06-01T06:41:30;8.02;;;4.20;;
22531;SDS011;11432;46.924;7.114;2023-06-01T06:43:55;6.07;;;4.20;;
22531;SDS011;11432;46.924;7.114;2023-06-01T06:46:22;6.13;;;4.25;;
22531;SDS011;11432;46.924;7.114;2023-06-01T06:48:48;6.00;;;4.32;;
22531;SDS011;11432;46.924;7.114;2023-06-01T06:51:13;6.47;;;4.25;;
22531;SDS011;11432;46.924;7.114;2023-06-01T06:53:39;6.70;;;4.03;;
22531;SDS011;11432;46.924;7.114;2023-06-01T06:56:54;6.68;;;3.83;;
22531;SDS011;11432;46.924;7.114;2023-06-01T06:59:20;5.88;;;3.88;;
22531;SDS011;11432;46.924;7.114;2023-06-01T07:01:45;6.60;;;4.00;;
22531;SDS011;11432;46.924;7.114;2023-06-01T07:04:12;8.18;;;3.90;;
22531;SDS011;11432;46.924;7.114;2023-06-01T07:06:37;9.05;;;4.05;;
22531;SDS011;11432;46.924;7.114;2023-06-01T07:09:03;7.55;;;4.80;;
22531;SDS011;11432;46.924;7.114;2023-06-01T07:11:30;6.40;;;4.30;;
22531;SDS011;11432;46.924;7.114;2023-06-01T07:13:56;5.97;;;4.38;;
22531;SDS011;11432;46.924;7.114;2023-06-01T07:16:23;8.85;;;4.30;;
22531;SDS011;11432;46.924;7.114;2023-06-01T07:18:50;6.22;;;4.13;;
22531;SDS011;11432;46.924;7.114;2023-06-01T07:21:16;8.93;;;4.13;;
22531;SDS011;11432;46.924;7.114;2023-06-01T07:23:42;6.07;;;4.00;;
22531;SDS011;11432;46.924;7.114;2023-06-01T07:26:09;8.95;;;4.43;;
22531;SDS011;11432;46.924;7.114;2023-06-01T07:28:35;7.78;;;4.63;;
22531;SDS011;11432;46.924;7.114;2023-06-01T07:31:00;5.95;;;4.13;;
22531;SDS011;11432;46.924;7.114;2023-06-01T07:33:26;8.15;;;5.57;;
22531;SDS011;11432;46.924;7.114;2023-06-01T07:35:51;8.23;;;4.70;;
22531;SDS011;11432;46.924;7.114;2023-06-01T07:38:18;6.15;;;3.78;;
22531;SDS011;11432;46.924;7.114;2023-06-01T07:40:45;5.18;;;3.50;;
22531;SDS011;11432;46.924;7.114;2023-06-01T07:43:11;6.93;;;4.03;;
22531;SDS011;11432;46.924;7.114;2023-06-01T07:45:36;4.25;;;3.05;;
22531;SDS011;11432;46.924;7.114;2023-06-01T07:48:04;7.43;;;4.35;;
22531;SDS011;11432;46.924;7.114;2023-06-01T07:50:30;5.68;;;4.13;;
22531;SDS011;11432;46.924;7.114;2023-06-01T07:52:56;7.10;;;3.78;;
22531;SDS011;11432;46.924;7.114;2023-06-01T07:55:22;5.03;;;3.97;;
22531;SDS011;11432;46.924;7.114;2023-06-01T07:57:48;7.18;;;3.78;;
22531;SDS011;11432;46.924;7.114;2023-06-01T08:00:14;6.22;;;4.32;;
22531;SDS011;11432;46.924;7.114;2023-06-01T08:02:42;6.60;;;4.45;;
22531;SDS011;11432;46.924;7.114;2023-06-01T08:05:08;6.82;;;4.03;;
22531;SDS011;11432;46.924;7.114;2023-06-01T08:07:35;5.47;;;3.85;;
22531;SDS011;11432;46.924;7.114;2023-06-01T08:10:03;6.60;;;4.03;;
22531;SDS011;11432;46.924;7.114;2023-06-01T08:12:33;6.07;;;4.28;;
22531;SDS011;11432;46.924;7.114;2023-06-01T08:14:59;7.05;;;4.00;;
22531;SDS011;11432;46.924;7.114;2023-06-01T08:17:25;8.32;;;4.65;;
22531;SDS011;11432;46.924;7.114;2023-06-01T08:19:51;6.47;;;4.82;;
22531;SDS011;11432;46.924;7.114;2023-06-01T08:22:19;7.22;;;4.60;;
22531;SDS011;11432;46.924;7.114;2023-06-01T08:24:45;6.35;;;4.30;;
22531;SDS011;11432;46.924;7.114;2023-06-01T08:27:19;7.32;;;4.68;;
22531;SDS011;11432;46.924;7.114;2023-06-01T08:29:46;7.88;;;4.10;;
22531;SDS011;11432;46.924;7.114;2023-06-01T08:32:12;9.23;;;4.53;;
22531;SDS011;11432;46.924;7.114;2023-06-01T08:34:38;8.10;;;4.95;;
22531;SDS011;11432;46.924;7.114;2023-06-01T08:37:04;8.10;;;4.25;;
22531;SDS011;11432;46.924;7.114;2023-06-01T08:39:30;7.72;;;4.53;;
22531;SDS011;11432;46.924;7.114;2023-06-01T08:42:09;8.90;;;4.38;;
22531;SDS011;11432;46.924;7.114;2023-06-01T08:44:38;9.20;;;4.82;;
22531;SDS011;11432;46.924;7.114;2023-06-01T08:47:05;5.70;;;3.95;;
22531;SDS011;11432;46.924;7.114;2023-06-01T08:49:32;10.73;;;4.57;;
22531;SDS011;11432;46.924;7.114;2023-06-01T08:52:03;7.53;;;4.93;;
22531;SDS011;11432;46.924;7.114;2023-06-01T08:54:32;9.52;;;5.78;;
22531;SDS011;11432;46.924;7.114;2023-06-01T08:57:03;6.97;;;4.45;;
22531;SDS011;11432;46.924;7.114;2023-06-01T08:59:32;8.48;;;5.47;;
22531;SDS011;11432;46.924;7.114;2023-06-01T09:01:59;8.27;;;5.53;;
22531;SDS011;11432;46.924;7.114;2023-06-01T09:04:26;9.10;;;5.63;;
22531;SDS011;11432;46.924;7.114;2023-06-01T09:06:52;8.00;;;5.15;;
22531;SDS011;11432;46.924;7.114;2023-06-01T09:09:17;7.57;;;4.63;;
22531;SDS011;11432;46.924;7.114;2023-06-01T09:11:43;12.45;;;6.20;;
22531;SDS011;11432;46.924;7.114;2023-06-01T09:14:18;7.32;;;5.30;;
22531;SDS011;11432;46.924;7.114;2023-06-01T09:16:49;7.80;;;5.65;;
22531;SDS011;11432;46.924;7.114;2023-06-01T09:19:16;8.52;;;4.75;;
22531;SDS011;11432;46.924;7.114;2023-06-01T09:24:23;12.75;;;6.10;;
22531;SDS011;11432;46.924;7.114;2023-06-01T09:26:49;7.20;;;5.10;;
22531;SDS011;11432;46.924;7.114;2023-06-01T09:29:15;6.53;;;4.30;;
22531;SDS011;11432;46.924;7.114;2023-06-01T09:31:42;9.82;;;6.03;;
22531;SDS011;11432;46.924;7.114;2023-06-01T09:34:20;13.13;;;6.30;;
22531;SDS011;11432;46.924;7.114;2023-06-01T09:36:50;10.05;;;6.38;;
22531;SDS011;11432;46.924;7.114;2023-06-01T09:39:18;9.30;;;5.70;;
22531;SDS011;11432;46.924;7.114;2023-06-01T09:41:54;9.23;;;4.95;;
22531;SDS011;11432;46.924;7.114;2023-06-01T09:47:10;9.60;;;5.00;;
22531;SDS011;11432;46.924;7.114;2023-06-01T09:49:41;7.68;;;4.70;;
22531;SDS011;11432;46.924;7.114;2023-06-01T09:54:37;11.88;;;5.53;;
22531;SDS011;11432;46.924;7.114;2023-06-01T09:57:04;8.83;;;5.47;;
22531;SDS011;11432;46.924;7.114;2023-06-01T10:00:04;9.50;;;5.18;;
22531;SDS011;11432;46.924;7.114;2023-06-01T10:02:25;9.32;;;4.70;;
22531;SDS011;11432;46.924;7.114;2023-06-01T10:04:53;9.13;;;3.97;;
22531;SDS011;11432;46.924;7.114;2023-06-01T10:07:23;14.05;;;4.50;;
22531;SDS011;11432;46.924;7.114;2023-06-01T10:09:51;13.82;;;4.50;;
22531;SDS011;11432;46.924;7.114;2023-06-01T10:12:21;8.25;;;5.38;;
22531;SDS011;11432;46.924;7.114;2023-06-01T10:14:47;12.32;;;5.07;;
22531;SDS011;11432;46.924;7.114;2023-06-01T10:17:13;8.75;;;4.45;;
22531;SDS011;11432;46.924;7.114;2023-06-01T10:19:41;5.32;;;4.13;;
22531;SDS011;11432;46.924;7.114;2023-06-01T10:22:07;7.38;;;4.13;;
22531;SDS011;11432;46.924;7.114;2023-06-01T10:24:35;7.72;;;4.28;;
22531;SDS011;11432;46.924;7.114;2023-06-01T10:29:40;11.15;;;4.50;;
22531;SDS011;11432;46.924;7.114;2023-06-01T10:32:40;9.13;;;3.95;;
22531;SDS011;11432;46.924;7.114;2023-06-01T10:40:38;8.48;;;3.70;;
22531;SDS011;11432;46.924;7.114;2023-06-01T10:43:05;6.28;;;2.97;;
22531;SDS011;11432;46.924;7.114;2023-06-01T10:47:59;8.43;;;3.88;;
22531;SDS011;11432;46.924;7.114;2023-06-01T10:50:26;11.25;;;3.63;;
22531;SDS011;11432;46.924;7.114;2023-06-01T10:52:52;4.53;;;3.15;;
22531;SDS011;11432;46.924;7.114;2023-06-01T10:55:20;7.57;;;3.30;;
22531;SDS011;11432;46.924;7.114;2023-06-01T10:57:46;7.50;;;3.40;;
22531;SDS011;11432;46.924;7.114;2023-06-01T11:00:13;5.25;;;3.13;;
22531;SDS011;11432;46.924;7.114;2023-06-01T11:05:42;5.88;;;4.00;;
22531;SDS011;11432;46.924;7.114;2023-06-01T11:13:19;8.32;;;4.32;;
22531;SDS011;11432;46.924;7.114;2023-06-01T11:21:16;4.72;;;3.22;;
22531;SDS011;11432;46.924;7.114;2023-06-01T11:23:43;5.85;;;3.97;;
22531;SDS011;11432;46.924;7.114;2023-06-01T11:26:10;5.07;;;3.58;;
22531;SDS011;11432;46.924;7.114;2023-06-01T11:28:40;9.45;;;3.75;;
22531;SDS011;11432;46.924;7.114;2023-06-01T11:31:10;7.53;;;3.80;;
22531;SDS011;11432;46.924;7.114;2023-06-01T11:33:52;6.57;;;2.90;;
22531;SDS011;11432;46.924;7.114;2023-06-01T11:36:25;7.35;;;4.10;;
22531;SDS011;11432;46.924;7.114;2023-06-01T11:38:52;6.93;;;3.70;;
22531;SDS011;11432;46.924;7.114;2023-06-01T11:41:19;8.77;;;3.72;;
22531;SDS011;11432;46.924;7.114;2023-06-01T11:43:54;6.95;;;4.20;;
22531;SDS011;11432;46.924;7.114;2023-06-01T11:46:21;8.70;;;3.83;;
22531;SDS011;11432;46.924;7.114;2023-06-01T11:51:34;9.27;;;3.63;;
22531;SDS011;11432;46.924;7.114;2023-06-01T11:54:02;7.47;;;3.67;;
22531;SDS011;11432;46.924;7.114;2023-06-01T11:56:29;10.45;;;3.75;;
22531;SDS011;11432;46.924;7.114;2023-06-01T11:58:59;8.02;;;3.80;;
22531;SDS011;11432;46.924;7.114;2023-06-01T12:01:27;5.63;;;2.90;;
22531;SDS011;11432;46.924;7.114;2023-06-01T12:03:54;7.07;;;3.72;;
22531;SDS011;11432;46.924;7.114;2023-06-01T12:06:23;5.07;;;3.15;;
22531;SDS011;11432;46.924;7.114;2023-06-01T12:08:53;11.77;;;3.00;;
22531;SDS011;11432;46.924;7.114;2023-06-01T12:11:21;6.47;;;2.95;;
22531;SDS011;11432;46.924;7.114;2023-06-01T12:13:51;5.47;;;2.88;;
22531;SDS011;11432;46.924;7.114;2023-06-01T12:16:18;6.65;;;3.00;;
22531;SDS011;11432;46.924;7.114;2023-06-01T12:18:43;8.15;;;2.83;;
22531;SDS011;11432;46.924;7.114;2023-06-01T12:21:13;5.90;;;3.08;;
22531;SDS011;11432;46.924;7.114;2023-06-01T12:23:40;4.60;;;2.92;;
22531;SDS011;11432;46.924;7.114;2023-06-01T12:26:06;5.53;;;3.47;;
22531;SDS011;11432;46.924;7.114;2023-06-01T12:28:52;6.43;;;3.38;;
22531;SDS011;11432;46.924;7.114;2023-06-01T12:31:20;12.88;;;3.28;;
22531;SDS011;11432;46.924;7.114;2023-06-01T12:33:46;5.80;;;3.42;;
22531;SDS011;11432;46.924;7.114;2023-06-01T12:36:31;8.20;;;3.10;;
22531;SDS011;11432;46.924;7.114;2023-06-01T12:38:58;6.50;;;3.70;;
22531;SDS011;11432;46.924;7.114;2023-06-01T12:41:24;7.85;;;4.10;;
22531;SDS011;11432;46.924;7.114;2023-06-01T12:43:51;7.80;;;3.63;;
22531;SDS011;11432;46.924;7.114;2023-06-01T12:46:27;6.45;;;3.35;;
22531;SDS011;11432;46.924;7.114;2023-06-01T12:48:54;7.68;;;3.03;;
22531;SDS011;11432;46.924;7.114;2023-06-01T12:51:35;5.90;;;2.97;;
22531;SDS011;11432;46.924;7.114;2023-06-01T12:54:01;4.88;;;3.03;;
22531;SDS011;11432;46.924;7.114;2023-06-01T12:56:27;4.95;;;2.67;;
22531;SDS011;11432;46.924;7.114;2023-06-01T12:58:54;4.90;;;2.90;;
22531;SDS011;11432;46.924;7.114;2023-06-01T13:01:19;6.63;;;3.63;;
22531;SDS011;11432;46.924;7.114;2023-06-01T13:03:45;7.47;;;3.20;;
22531;SDS011;11432;46.924;7.114;2023-06-01T13:06:10;5.40;;;3.47;;
22531;SDS011;11432;46.924;7.114;2023-06-01T13:08:37;4.15;;;3.03;;
22531;SDS011;11432;46.924;7.114;2023-06-01T13:11:03;9.88;;;2.92;;
22531;SDS011;11432;46.924;7.114;2023-06-01T13:13:28;3.72;;;2.53;;
22531;SDS011;11432;46.924;7.114;2023-06-01T13:15:54;6.88;;;3.17;;
22531;SDS011;11432;46.924;7.114;2023-06-01T13:18:20;4.25;;;2.78;;
22531;SDS011;11432;46.924;7.114;2023-06-01T13:20:46;3.55;;;2.60;;
22531;SDS011;11432;46.924;7.114;2023-06-01T13:23:12;6.07;;;3.08;;
22531;SDS011;11432;46.924;7.114;2023-06-01T13:25:38;5.50;;;2.75;;
22531;SDS011;11432;46.924;7.114;2023-06-01T13:28:05;7.38;;;3.03;;
22531;SDS011;11432;46.924;7.114;2023-06-01T13:30:32;7.22;;;2.75;;
22531;SDS011;11432;46.924;7.114;2023-06-01T13:32:59;4.05;;;2.60;;
22531;SDS011;11432;46.924;7.114;2023-06-01T13:35:25;5.32;;;3.15;;
22531;SDS011;11432;46.924;7.114;2023-06-01T13:37:51;5.30;;;3.15;;
22531;SDS011;11432;46.924;7.114;2023-06-01T13:40:17;4.75;;;2.70;;
22531;SDS011;11432;46.924;7.114;2023-06-01T13:42:47;5.40;;;2.92;;
22531;SDS011;11432;46.924;7.114;2023-06-01T13:45:13;6.97;;;3.30;;
22531;SDS011;11432;46.924;7.114;2023-06-01T13:47:39;10.35;;;2.75;;
22531;SDS011;11432;46.924;7.114;2023-06-01T13:50:05;6.55;;;3.15;;
22531;SDS011;11432;46.924;7.114;2023-06-01T13:52:31;4.88;;;2.58;;
22531;SDS011;11432;46.924;7.114;2023-06-01T13:54:57;6.35;;;3.15;;
22531;SDS011;11432;46.924;7.114;2023-06-01T13:57:22;7.90;;;2.38;;
22531;SDS011;11432;46.924;7.114;2023-06-01T13:59:48;5.40;;;2.70;;
22531;SDS011;11432;46.924;7.114;2023-06-01T14:02:14;5.95;;;3.05;;
22531;SDS011;11432;46.924;7.114;2023-06-01T14:04:40;8.18;;;2.72;;
22531;SDS011;11432;46.924;7.114;2023-06-01T14:07:05;6.40;;;2.80;;
22531;SDS011;11432;46.924;7.114;2023-06-01T14:09:31;3.83;;;2.28;;
22531;SDS011;11432;46.924;7.114;2023-06-01T14:11:56;8.32;;;3.58;;
22531;SDS011;11432;46.924;7.114;2023-06-01T14:14:22;3.65;;;2.25;;
22531;SDS011;11432;46.924;7.114;2023-06-01T14:16:48;4.28;;;2.88;;
22531;SDS011;11432;46.924;7.114;2023-06-01T14:19:13;7.03;;;2.97;;
22531;SDS011;11432;46.924;7.114;2023-06-01T14:21:39;5.78;;;2.75;;
22531;SDS011;11432;46.924;7.114;2023-06-01T14:24:05;6.55;;;2.75;;
22531;SDS011;11432;46.924;7.114;2023-06-01T14:26:31;7.97;;;2.65;;
22531;SDS011;11432;46.924;7.114;2023-06-01T14:28:57;4.60;;;2.95;;
22531;SDS011;11432;46.924;7.114;2023-06-01T14:31:22;5.82;;;2.92;;
22531;SDS011;11432;46.924;7.114;2023-06-01T14:33:48;7.43;;;3.20;;
22531;SDS011;11432;46.924;7.114;2023-06-01T14:36:14;6.18;;;2.70;;
22531;SDS011;11432;46.924;7.114;2023-06-01T14:38:40;6.53;;;3.85;;
22531;SDS011;11432;46.924;7.114;2023-06-01T14:41:06;4.47;;;2.83;;
22531;SDS011;11432;46.924;7.114;2023-06-01T14:43:32;4.57;;;2.65;;
22531;SDS011;11432;46.924;7.114;2023-06-01T14:45:58;5.32;;;2.60;;
22531;SDS011;11432;46.924;7.114;2023-06-01T14:48:24;5.40;;;2.85;;
22531;SDS011;11432;46.924;7.114;2023-06-01T14:50:50;5.18;;;2.80;;
22531;SDS011;11432;46.924;7.114;2023-06-01T14:53:16;3.58;;;2.20;;
22531;SDS011;11432;46.924;7.114;2023-06-01T14:55:42;4.80;;;3.15;;
22531;SDS011;11432;46.924;7.114;2023-06-01T14:58:08;7.03;;;3.60;;
22531;SDS011;11432;46.924;7.114;2023-06-01T15:00:35;5.90;;;2.97;;
22531;SDS011;11432;46.924;7.114;2023-06-01T15:03:01;4.22;;;2.97;;
22531;SDS011;11432;46.924;7.114;2023-06-01T15:05:28;6.40;;;2.72;;
22531;SDS011;11432;46.924;7.114;2023-06-01T15:07:53;7.35;;;3.38;;
22531;SDS011;11432;46.924;7.114;2023-06-01T15:10:19;7.15;;;2.90;;
22531;SDS011;11432;46.924;7.114;2023-06-01T15:12:45;6.03;;;3.20;;
22531;SDS011;11432;46.924;7.114;2023-06-01T15:15:10;5.05;;;2.53;;
22531;SDS011;11432;46.924;7.114;2023-06-01T15:17:37;8.02;;;3.10;;
22531;SDS011;11432;46.924;7.114;2023-06-01T15:20:03;5.75;;;3.10;;
22531;SDS011;11432;46.924;7.114;2023-06-01T15:22:30;4.35;;;2.60;;
22531;SDS011;11432;46.924;7.114;2023-06-01T15:24:56;5.57;;;2.75;;
22531;SDS011;11432;46.924;7.114;2023-06-01T15:27:22;4.00;;;2.58;;
22531;SDS011;11432;46.924;7.114;2023-06-01T15:29:48;4.43;;;3.00;;
22531;SDS011;11432;46.924;7.114;2023-06-01T15:32:14;6.40;;;2.95;;
22531;SDS011;11432;46.924;7.114;2023-06-01T15:34:39;3.95;;;2.55;;
22531;SDS011;11432;46.924;7.114;2023-06-01T15:37:06;4.43;;;2.53;;
22531;SDS011;11432;46.924;7.114;2023-06-01T15:39:33;5.90;;;2.50;;
22531;SDS011;11432;46.924;7.114;2023-06-01T15:42:00;6.10;;;2.92;;